Time;durP1;ratioP1;P1;durP2;ratioP2;P2;SDS_P1;SDS_P2;PMS_P1;PMS_P2;Temp;Humidity;BMP_temperature;BMP_pressure;BME280_temperature;BME280_humidity;BME280_pressure;Samples;Min_cycle;Max_cycle;Signal;HPM_P1;HPM_P2
2021/08/10 00:00:51;;;;;;;1.30;1.08;;;21.50;74.90;;;;;;5090598;28;20499;-48
2021/08/10 00:03:16;;;;;;;1.25;0.85;;;21.40;74.90;;;;;;5091047;28;20070;-47
2021/08/10 00:05:47;;;;;;;1.38;1.25;;;21.50;74.90;;;;;;5090377;28;20046;-49
2021/08/10 00:08:18;;;;;;;1.65;1.13;;;21.40;74.90;;;;;;5090637;28;20048;-46
2021/08/10 00:10:44;;;;;;;1.30;1.15;;;21.40;74.90;;;;;;5090726;28;20040;-50
2021/08/10 00:13:15;;;;;;;1.25;0.95;;;21.30;74.80;;;;;;5090432;28;20098;-53
2021/08/10 00:15:41;;;;;;;1.15;1.00;;;21.40;74.90;;;;;;5090726;28;20039;-48
2021/08/10 00:18:07;;;;;;;0.93;0.93;;;21.40;74.80;;;;;;5090912;28;20046;-53
2021/08/10 00:20:33;;;;;;;1.10;1.00;;;21.40;74.80;;;;;;5090441;28;20132;-50
2021/08/10 00:23:00;;;;;;;0.90;0.85;;;21.40;74.80;;;;;;5090031;28;20044;-51
2021/08/10 00:25:26;;;;;;;1.00;0.90;;;21.40;74.90;;;;;;5090761;28;20096;-53
2021/08/10 00:27:52;;;;;;;1.92;1.00;;;21.40;74.80;;;;;;5091113;28;20044;-54
2021/08/10 00:30:17;;;;;;;1.08;1.00;;;21.40;74.90;;;;;;5090467;28;20036;-50
2021/08/10 00:32:43;;;;;;;1.40;1.02;;;21.40;74.80;;;;;;5090512;28;20051;-53
2021/08/10 00:35:09;;;;;;;1.00;0.90;;;21.40;74.80;;;;;;5090388;28;20505;-47
2021/08/10 00:37:35;;;;;;;1.63;1.10;;;21.40;74.80;;;;;;5090470;28;20538;-45
2021/08/10 00:40:00;;;;;;;1.58;1.13;;;21.40;75.50;;;;;;5091179;28;20036;-51
2021/08/10 00:42:26;;;;;;;1.00;0.88;;;21.40;74.80;;;;;;5091413;28;20054;-53
2021/08/10 00:44:52;;;;;;;1.30;1.15;;;21.40;74.80;;;;;;5093881;28;20043;-46
2021/08/10 00:47:18;;;;;;;1.15;1.00;;;21.40;74.80;;;;;;5094362;28;20066;-45
2021/08/10 00:49:44;;;;;;;1.08;0.98;;;21.40;74.80;;;;;;5094512;28;20055;-45
2021/08/10 00:52:10;;;;;;;1.33;1.00;;;21.40;74.80;;;;;;5091224;28;20445;-41
2021/08/10 00:54:36;;;;;;;1.20;1.10;;;21.40;74.80;;;;;;5093430;28;20499;-54
2021/08/10 00:57:02;;;;;;;1.02;0.93;;;21.40;74.80;;;;;;5094279;28;20044;-50
2021/08/10 00:59:27;;;;;;;1.10;1.00;;;21.40;74.80;;;;;;5094438;28;20044;-44
2021/08/10 01:01:53;;;;;;;1.33;0.93;;;21.40;74.80;;;;;;5093737;28;20040;-47
2021/08/10 01:04:19;;;;;;;1.65;1.08;;;21.40;74.80;;;;;;5093405;28;20105;-47
2021/08/10 01:07:26;;;;;;;1.08;0.98;;;21.40;74.80;;;;;;5094035;28;20074;-43
2021/08/10 01:10:10;;;;;;;1.15;0.90;;;21.40;74.80;;;;;;5091084;28;20458;-51
2021/08/10 01:12:54;;;;;;;0.88;0.88;;;21.40;74.80;;;;;;5091668;28;20052;-46
2021/08/10 01:15:25;;;;;;;1.38;1.10;;;21.40;74.80;;;;;;5092170;28;20043;-53
2021/08/10 01:18:29;;;;;;;1.23;1.08;;;21.30;74.70;;;;;;5091224;28;20075;-51
2021/08/10 01:21:16;;;;;;;0.95;0.85;;;21.40;74.80;;;;;;5051288;28;20473;-53
2021/08/10 01:23:45;;;;;;;1.15;1.00;;;21.40;74.80;;;;;;5049636;28;20064;-49
2021/08/10 01:26:34;;;;;;;1.27;0.90;;;21.40;74.70;;;;;;5048289;28;20053;-50
2021/08/10 01:29:09;;;;;;;1.05;0.95;;;21.40;74.70;;;;;;5050017;28;20045;-50
2021/08/10 01:31:38;;;;;;;1.37;0.93;;;21.40;74.80;;;;;;5048660;28;20159;-51
2021/08/10 01:34:29;;;;;;;1.30;0.75;;;21.40;74.70;;;;;;5050753;28;20306;-52
2021/08/10 01:36:59;;;;;;;0.93;0.88;;;21.40;74.70;;;;;;5049002;28;20043;-50
2021/08/10 01:39:27;;;;;;;1.23;1.02;;;21.30;74.70;;;;;;5050609;28;20076;-51
2021/08/10 01:41:54;;;;;;;2.05;1.17;;;21.40;74.70;;;;;;5048181;28;20176;-51
2021/08/10 01:44:25;;;;;;;1.02;0.82;;;21.30;74.70;;;;;;5049779;28;20072;-42
2021/08/10 01:46:52;;;;;;;0.80;0.80;;;21.30;74.70;;;;;;5047726;28;20049;-54
2021/08/10 01:49:19;;;;;;;1.10;1.00;;;21.40;74.80;;;;;;5050440;28;20052;-42
2021/08/10 01:51:46;;;;;;;1.95;1.42;;;21.30;74.70;;;;;;5072759;28;20059;-51
2021/08/10 01:54:13;;;;;;;1.10;1.00;;;21.30;74.70;;;;;;5093056;28;20039;-49
2021/08/10 01:56:40;;;;;;;0.88;0.88;;;21.30;74.70;;;;;;5091808;28;20131;-54
2021/08/10 01:59:07;;;;;;;0.98;0.88;;;21.30;74.70;;;;;;5092865;28;20036;-56
2021/08/10 02:01:38;;;;;;;1.10;0.95;;;21.30;74.70;;;;;;5093185;28;20044;-54
2021/08/10 02:04:05;;;;;;;1.27;0.95;;;21.30;74.70;;;;;;5092718;28;20085;-50
2021/08/10 02:06:32;;;;;;;0.88;0.80;;;21.30;74.70;;;;;;5091969;28;20404;-54
2021/08/10 02:09:00;;;;;;;1.02;0.95;;;21.30;74.70;;;;;;5092815;28;20051;-55
2021/08/10 02:11:27;;;;;;;1.05;0.95;;;21.30;74.70;;;;;;5092280;28;20480;-51
2021/08/10 02:13:54;;;;;;;1.08;0.80;;;21.40;74.70;;;;;;5092301;28;20039;-55
2021/08/10 02:16:22;;;;;;;1.00;0.90;;;21.30;74.60;;;;;;5091975;28;20143;-49
2021/08/10 02:18:49;;;;;;;1.23;1.10;;;21.40;74.70;;;;;;5089834;28;20101;-55
2021/08/10 02:21:34;;;;;;;0.80;0.80;;;21.30;74.60;;;;;;5092243;28;20492;-53
2021/08/10 02:24:06;;;;;;;1.10;0.70;;;21.30;74.60;;;;;;5086922;28;20051;-46
2021/08/10 02:26:39;;;;;;;1.38;0.95;;;21.30;75.30;;;;;;5089966;28;20044;-54
2021/08/10 02:29:04;;;;;;;1.90;1.00;;;21.30;74.60;;;;;;5091732;28;20085;-55
2021/08/10 02:31:32;;;;;;;1.25;1.00;;;21.30;74.60;;;;;;5092116;28;20472;-50
2021/08/10 02:33:58;;;;;;;2.35;1.00;;;21.30;74.60;;;;;;5091984;28;20131;-52
2021/08/10 02:36:27;;;;;;;0.93;0.93;;;21.30;74.70;;;;;;5091553;28;20069;-54
2021/08/10 02:38:54;;;;;;;0.70;0.70;;;21.30;74.70;;;;;;5091932;28;20067;-53
2021/08/10 02:41:20;;;;;;;0.95;0.93;;;21.30;74.70;;;;;;5092334;28;20097;-53
2021/08/10 02:43:46;;;;;;;1.55;1.00;;;21.30;74.70;;;;;;5091892;28;20047;-54
2021/08/10 02:46:12;;;;;;;1.27;0.95;;;21.30;74.70;;;;;;5091616;28;20146;-51
2021/08/10 02:48:37;;;;;;;1.30;1.20;;;21.30;74.60;;;;;;5091673;28;20097;-53
2021/08/10 02:51:03;;;;;;;1.50;1.10;;;21.30;74.60;;;;;;5091832;28;20046;-47
2021/08/10 02:53:29;;;;;;;1.10;0.93;;;21.30;74.60;;;;;;5091927;28;20043;-46
2021/08/10 02:56:12;;;;;;;1.95;1.08;;;21.30;74.50;;;;;;5091722;28;20460;-47
2021/08/10 02:58:55;;;;;;;0.70;0.60;;;21.30;74.60;;;;;;5090117;28;20044;-44
2021/08/10 03:01:28;;;;;;;1.15;0.90;;;21.30;75.20;;;;;;5091965;28;20044;-52
2021/08/10 03:03:56;;;;;;;1.38;1.10;;;21.30;74.60;;;;;;5089656;28;20081;-51
2021/08/10 03:06:23;;;;;;;0.75;0.75;;;21.30;74.60;;;;;;5091504;28;20400;-48
2021/08/10 03:08:59;;;;;;;1.00;0.90;;;21.30;74.60;;;;;;5089127;28;20032;-47
2021/08/10 03:11:43;;;;;;;1.10;1.00;;;21.30;74.50;;;;;;5091257;28;20052;-45
2021/08/10 03:14:11;;;;;;;1.52;0.77;;;21.30;74.50;;;;;;5089367;28;20075;-47
2021/08/10 03:16:39;;;;;;;1.35;1.10;;;21.30;74.60;;;;;;5091500;28;20063;-46
2021/08/10 03:19:06;;;;;;;0.70;0.70;;;21.30;74.60;;;;;;5091632;28;20045;-49
2021/08/10 03:21:34;;;;;;;1.58;0.93;;;21.30;74.60;;;;;;5091359;28;20048;-50
2021/08/10 03:24:02;;;;;;;0.77;0.77;;;21.30;74.60;;;;;;5091272;28;20063;-46
2021/08/10 03:26:29;;;;;;;1.23;1.08;;;21.20;74.50;;;;;;5091066;28;20055;-46
2021/08/10 03:28:55;;;;;;;0.95;0.90;;;21.30;74.50;;;;;;5091297;28;20036;-49
2021/08/10 03:31:22;;;;;;;0.70;0.68;;;21.30;74.50;;;;;;5090642;28;20036;-50
2021/08/10 03:33:49;;;;;;;0.75;0.75;;;21.20;74.50;;;;;;5091049;28;20063;-48
2021/08/10 03:36:16;;;;;;;0.85;0.80;;;21.30;74.60;;;;;;5091222;28;20055;-45
2021/08/10 03:38:43;;;;;;;1.10;1.00;;;21.30;74.50;;;;;;5091242;28;20040;-48
2021/08/10 03:41:09;;;;;;;1.23;0.95;;;21.20;74.50;;;;;;5091428;28;20459;-45
2021/08/10 03:43:36;;;;;;;0.88;0.70;;;21.30;74.50;;;;;;5090936;28;20036;-47
2021/08/10 03:46:02;;;;;;;1.10;1.00;;;21.30;74.50;;;;;;5091202;28;20488;-48
2021/08/10 03:48:33;;;;;;;0.68;0.68;;;21.30;74.50;;;;;;5090931;28;20043;-47
2021/08/10 03:51:00;;;;;;;1.60;0.93;;;21.30;74.50;;;;;;5089211;28;20118;-51
2021/08/10 03:53:26;;;;;;;1.13;0.90;;;21.20;74.40;;;;;;5091291;28;20113;-49
2021/08/10 03:55:54;;;;;;;0.90;0.90;;;21.30;74.50;;;;;;5091111;28;21292;-47
2021/08/10 03:58:23;;;;;;;1.17;1.05;;;21.20;74.50;;;;;;5088170;28;20326;-46
2021/08/10 04:00:52;;;;;;;1.42;1.30;;;21.20;74.50;;;;;;5090900;28;20442;-48
2021/08/10 04:03:18;;;;;;;2.10;0.93;;;21.20;74.50;;;;;;5087065;28;20488;-49
2021/08/10 04:05:46;;;;;;;0.75;0.75;;;21.20;74.50;;;;;;5090184;28;20036;-48
2021/08/10 04:08:14;;;;;;;1.30;0.98;;;21.30;74.50;;;;;;5090013;28;21365;-47
2021/08/10 04:10:42;;;;;;;0.98;0.88;;;21.30;74.60;;;;;;5087910;28;20468;-51
2021/08/10 04:13:10;;;;;;;0.80;0.73;;;21.20;74.50;;;;;;5090587;28;20484;-46
2021/08/10 04:15:45;;;;;;;1.60;0.82;;;21.20;74.50;;;;;;5090284;28;20403;-50
2021/08/10 04:18:13;;;;;;;1.20;1.00;;;21.20;74.50;;;;;;5093507;28;20492;-47
2021/08/10 04:20:39;;;;;;;1.70;0.98;;;21.20;74.50;;;;;;5092008;28;20446;-50
2021/08/10 04:23:05;;;;;;;1.20;1.10;;;21.20;74.50;;;;;;5094859;28;20061;-51
2021/08/10 04:25:32;;;;;;;1.38;0.95;;;21.20;74.50;;;;;;5094601;28;20048;-46
2021/08/10 04:27:58;;;;;;;1.20;0.95;;;21.20;74.50;;;;;;5092961;28;20040;-49
2021/08/10 04:30:24;;;;;;;1.70;0.90;;;21.20;74.50;;;;;;5094903;28;20502;-52
2021/08/10 04:32:49;;;;;;;1.70;1.00;;;21.20;75.10;;;;;;5094778;28;20123;-49
2021/08/10 04:35:15;;;;;;;1.92;1.00;;;21.20;74.50;;;;;;5093527;28;20052;-50
2021/08/10 04:37:41;;;;;;;0.85;0.80;;;21.20;74.40;;;;;;5094214;28;20521;-47
2021/08/10 04:40:07;;;;;;;0.90;0.90;;;21.20;74.50;;;;;;5094526;28;20476;-45
2021/08/10 04:42:35;;;;;;;1.10;1.00;;;21.20;74.40;;;;;;5094244;28;20055;-47
2021/08/10 04:45:02;;;;;;;1.20;1.05;;;21.20;74.50;;;;;;5094378;28;20074;-41
2021/08/10 04:47:28;;;;;;;1.10;0.90;;;21.20;74.40;;;;;;5093901;28;20071;-47
2021/08/10 04:49:54;;;;;;;1.17;0.98;;;21.20;74.40;;;;;;5093188;28;20040;-47
2021/08/10 04:52:21;;;;;;;1.27;1.10;;;21.20;74.40;;;;;;5093110;28;20040;-48
2021/08/10 04:54:48;;;;;;;1.05;0.98;;;21.20;74.50;;;;;;5094126;28;20111;-54
2021/08/10 04:57:14;;;;;;;1.10;1.00;;;21.20;74.40;;;;;;5093712;28;20047;-51
2021/08/10 04:59:40;;;;;;;1.95;0.90;;;21.20;74.40;;;;;;5093874;28;20040;-50
2021/08/10 05:02:06;;;;;;;1.45;0.93;;;21.20;74.50;;;;;;5093909;28;20059;-48
2021/08/10 05:04:32;;;;;;;0.95;0.82;;;21.20;74.40;;;;;;5093918;28;20458;-52
2021/08/10 05:07:00;;;;;;;0.90;0.90;;;21.20;74.40;;;;;;5090579;28;20036;-48
2021/08/10 05:09:26;;;;;;;0.93;0.90;;;21.20;74.40;;;;;;5093397;28;20044;-54
2021/08/10 05:11:52;;;;;;;0.70;0.70;;;21.20;74.40;;;;;;5076036;28;20555;-52
2021/08/10 05:14:18;;;;;;;0.75;0.75;;;21.20;74.40;;;;;;5090922;28;20047;-54
2021/08/10 05:16:43;;;;;;;0.95;0.95;;;21.20;74.40;;;;;;5093605;28;20040;-50
2021/08/10 05:19:09;;;;;;;1.27;0.98;;;21.20;74.40;;;;;;5093014;28;20463;-46
2021/08/10 05:21:35;;;;;;;1.17;1.08;;;21.20;74.40;;;;;;5093042;28;20062;-50
2021/08/10 05:24:01;;;;;;;1.30;1.00;;;21.20;74.40;;;;;;5093499;28;20193;-52
2021/08/10 05:26:26;;;;;;;0.82;0.80;;;21.20;74.30;;;;;;5092468;28;20065;-55
2021/08/10 05:28:52;;;;;;;1.45;1.20;;;21.20;74.40;;;;;;5092739;28;20063;-53
2021/08/10 05:31:18;;;;;;;1.50;1.02;;;21.20;74.30;;;;;;5093550;28;20040;-52
2021/08/10 05:33:44;;;;;;;1.77;1.17;;;21.20;74.40;;;;;;5093808;28;20051;-49
2021/08/10 05:36:09;;;;;;;1.27;0.98;;;21.20;74.30;;;;;;5093277;28;20488;-54
2021/08/10 05:38:36;;;;;;;1.67;1.25;;;21.20;74.30;;;;;;5092552;28;20040;-48
2021/08/10 05:41:01;;;;;;;1.40;0.90;;;21.20;74.30;;;;;;5093436;28;20082;-50
2021/08/10 05:43:27;;;;;;;1.60;1.10;;;21.20;74.30;;;;;;5093239;28;20481;-55
2021/08/10 05:45:53;;;;;;;1.10;1.00;;;21.20;74.30;;;;;;5092105;28;20078;-54
2021/08/10 05:48:19;;;;;;;1.10;1.00;;;21.20;74.30;;;;;;5092985;28;20047;-54
2021/08/10 05:50:46;;;;;;;1.10;1.00;;;21.20;74.30;;;;;;5092822;28;20055;-53
2021/08/10 05:53:12;;;;;;;1.23;1.00;;;21.20;74.30;;;;;;5092921;28;20055;-54
2021/08/10 05:55:37;;;;;;;1.17;1.08;;;21.20;74.30;;;;;;5093512;28;20044;-54
2021/08/10 05:58:03;;;;;;;1.13;0.80;;;21.20;74.30;;;;;;5093597;28;20047;-50
2021/08/10 06:00:29;;;;;;;1.10;0.90;;;21.20;74.30;;;;;;5092842;28;20515;-55
2021/08/10 06:02:55;;;;;;;1.00;0.80;;;21.20;74.30;;;;;;5093565;28;20508;-51
2021/08/10 06:05:21;;;;;;;1.00;0.90;;;21.20;74.30;;;;;;5093478;28;20093;-54
2021/08/10 06:07:47;;;;;;;1.77;1.13;;;21.20;74.30;;;;;;5093302;28;20040;-52
2021/08/10 06:10:12;;;;;;;1.30;1.20;;;21.20;74.30;;;;;;5092294;28;20039;-46
2021/08/10 06:12:38;;;;;;;1.27;1.17;;;21.20;74.30;;;;;;5092389;28;20040;-53
2021/08/10 06:15:04;;;;;;;0.80;0.80;;;21.20;74.30;;;;;;5092292;28;20408;-50
2021/08/10 06:17:30;;;;;;;0.80;0.80;;;21.20;74.20;;;;;;5092744;28;20519;-51
2021/08/10 06:19:56;;;;;;;1.55;1.23;;;21.20;74.20;;;;;;5092458;28;20040;-54
2021/08/10 06:22:21;;;;;;;1.20;1.10;;;21.20;74.30;;;;;;5093017;28;20048;-52
2021/08/10 06:24:47;;;;;;;1.23;1.10;;;21.20;74.20;;;;;;5092568;28;20044;-51
2021/08/10 06:27:13;;;;;;;0.77;0.77;;;21.20;74.30;;;;;;5092739;28;20511;-47
2021/08/10 06:29:38;;;;;;;1.05;1.02;;;21.20;74.20;;;;;;5092516;28;20090;-49
2021/08/10 06:32:04;;;;;;;1.35;1.00;;;21.20;74.20;;;;;;5092214;28;20066;-46
2021/08/10 06:34:30;;;;;;;1.15;1.00;;;21.20;74.20;;;;;;5092272;28;20060;-47
2021/08/10 06:36:56;;;;;;;1.27;1.10;;;21.20;74.20;;;;;;5092568;28;20520;-51
2021/08/10 06:39:21;;;;;;;1.17;1.08;;;21.20;74.20;;;;;;5091586;28;20117;-46
2021/08/10 06:41:47;;;;;;;1.30;1.10;;;21.20;74.20;;;;;;5092122;28;20082;-46
2021/08/10 06:44:13;;;;;;;1.10;0.90;;;21.10;74.10;;;;;;5091963;28;20361;-49
2021/08/10 06:46:39;;;;;;;1.20;0.80;;;21.20;74.20;;;;;;5092269;28;20126;-52
2021/08/10 06:49:04;;;;;;;1.40;1.10;;;21.20;74.20;;;;;;5092060;28;20044;-52
2021/08/10 06:51:30;;;;;;;1.27;0.80;;;21.20;74.20;;;;;;5091268;28;20123;-49
2021/08/10 06:53:55;;;;;;;1.00;0.90;;;21.20;74.10;;;;;;5091475;28;20044;-51
2021/08/10 06:56:21;;;;;;;1.15;0.85;;;21.20;74.10;;;;;;5090893;28;20040;-51
2021/08/10 06:58:48;;;;;;;1.10;1.00;;;21.20;74.10;;;;;;5084700;28;20040;-45
2021/08/10 07:01:13;;;;;;;1.73;1.10;;;21.20;74.10;;;;;;5089985;28;20071;-46
2021/08/10 07:03:39;;;;;;;0.80;0.80;;;21.20;74.10;;;;;;5088923;28;20232;-48
2021/08/10 07:06:05;;;;;;;1.30;0.88;;;21.10;74.00;;;;;;5089772;28;20043;-44
2021/08/10 07:08:30;;;;;;;1.15;1.00;;;21.20;74.10;;;;;;5091938;28;20143;-54
2021/08/10 07:10:56;;;;;;;1.08;0.98;;;21.20;74.10;;;;;;5090916;28;20074;-51
2021/08/10 07:13:22;;;;;;;1.10;0.93;;;21.20;74.10;;;;;;5088070;28;20074;-53
2021/08/10 07:15:47;;;;;;;1.20;0.90;;;21.20;74.00;;;;;;5090798;28;20082;-54
2021/08/10 07:18:13;;;;;;;1.63;1.30;;;21.20;74.00;;;;;;5090983;28;20040;-52
2021/08/10 07:20:39;;;;;;;1.27;1.15;;;21.20;74.00;;;;;;5090211;28;20039;-51
2021/08/10 07:23:04;;;;;;;1.30;1.08;;;21.20;74.00;;;;;;5091430;28;20040;-52
2021/08/10 07:25:30;;;;;;;0.85;0.85;;;21.20;73.90;;;;;;5090649;28;20098;-54
2021/08/10 07:27:56;;;;;;;1.40;1.08;;;21.20;73.90;;;;;;5090132;28;20070;-53
2021/08/10 07:30:22;;;;;;;0.98;0.88;;;21.20;74.50;;;;;;5091402;28;20056;-53
2021/08/10 07:32:48;;;;;;;1.63;1.20;;;21.20;73.90;;;;;;5089805;28;20039;-54
2021/08/10 07:35:13;;;;;;;1.63;1.08;;;21.20;73.90;;;;;;5088816;28;20050;-53
2021/08/10 07:37:41;;;;;;;1.35;0.95;;;21.20;73.90;;;;;;5090814;28;20509;-45
2021/08/10 07:40:08;;;;;;;1.25;1.00;;;21.20;73.80;;;;;;5091369;28;20044;-48
2021/08/10 07:42:34;;;;;;;1.35;1.00;;;21.20;73.80;;;;;;5089770;28;20105;-55
2021/08/10 07:44:59;;;;;;;1.50;0.90;;;21.20;73.80;;;;;;5091555;28;20056;-46
2021/08/10 07:47:25;;;;;;;1.75;0.93;;;21.20;73.80;;;;;;5091203;28;20473;-49
2021/08/10 07:49:51;;;;;;;1.67;0.90;;;21.20;73.80;;;;;;5089386;28;20048;-49
2021/08/10 07:52:16;;;;;;;1.23;1.00;;;21.20;73.70;;;;;;5095281;28;20076;-51
2021/08/10 07:54:42;;;;;;;0.93;0.90;;;21.20;73.80;;;;;;5095251;28;20048;-49
2021/08/10 07:57:08;;;;;;;1.45;0.90;;;21.20;73.70;;;;;;5093738;28;20047;-47
2021/08/10 07:59:34;;;;;;;1.15;0.93;;;21.10;73.60;;;;;;5094727;28;20506;-50
2021/08/10 08:02:00;;;;;;;1.10;0.90;;;21.20;73.70;;;;;;5094436;28;20039;-49
2021/08/10 08:04:26;;;;;;;0.93;0.90;;;21.20;73.70;;;;;;5094065;28;20052;-51
2021/08/10 08:06:52;;;;;;;1.10;1.00;;;21.20;73.70;;;;;;5094416;28;20047;-45
2021/08/10 08:09:17;;;;;;;0.80;0.80;;;21.20;73.70;;;;;;5095343;28;20446;-44
2021/08/10 08:11:43;;;;;;;1.33;0.85;;;21.20;73.70;;;;;;5093752;28;20488;-53
2021/08/10 08:14:09;;;;;;;1.65;1.02;;;21.20;73.70;;;;;;5094351;28;20063;-50
2021/08/10 08:16:34;;;;;;;1.17;0.95;;;21.20;73.70;;;;;;5094443;28;20424;-53
2021/08/10 08:19:00;;;;;;;1.10;0.75;;;21.20;73.70;;;;;;5093394;28;20044;-53
2021/08/10 08:21:26;;;;;;;1.48;1.17;;;21.20;73.70;;;;;;5094819;28;20055;-54
2021/08/10 08:23:52;;;;;;;3.53;2.13;;;21.20;73.70;;;;;;5094876;28;20052;-50
2021/08/10 08:26:19;;;;;;;6.30;2.85;;;21.20;73.60;;;;;;5094710;28;20047;-51
2021/08/10 08:28:45;;;;;;;5.63;2.65;;;21.20;73.40;;;;;;5093401;28;20044;-53
2021/08/10 08:31:11;;;;;;;3.80;2.03;;;21.30;73.30;;;;;;5094151;28;21197;-48
2021/08/10 08:33:36;;;;;;;3.90;2.28;;;21.30;73.00;;;;;;5092409;28;20044;-48
2021/08/10 08:36:02;;;;;;;4.75;2.70;;;21.30;72.90;;;;;;5093983;28;20052;-50
2021/08/10 08:38:28;;;;;;;4.00;2.42;;;21.30;72.80;;;;;;5094124;28;20119;-48
2021/08/10 08:40:54;;;;;;;3.75;2.38;;;21.30;72.80;;;;;;5093667;28;20051;-51
2021/08/10 08:43:22;;;;;;;5.30;2.35;;;21.30;72.80;;;;;;5093823;28;20548;-53
2021/08/10 08:45:47;;;;;;;3.15;2.10;;;21.30;72.80;;;;;;5094007;28;20097;-47
2021/08/10 08:48:15;;;;;;;3.33;2.30;;;21.30;72.90;;;;;;5093236;28;20036;-47
2021/08/10 08:50:43;;;;;;;2.67;2.30;;;21.30;73.00;;;;;;5094308;28;20044;-48
2021/08/10 08:53:12;;;;;;;2.60;2.10;;;21.30;73.10;;;;;;5094242;28;20044;-51
2021/08/10 08:55:42;;;;;;;3.40;2.00;;;21.30;73.20;;;;;;5094157;28;20048;-51
2021/08/10 08:58:08;;;;;;;3.50;2.08;;;21.30;73.30;;;;;;5094141;28;20044;-51
2021/08/10 09:00:34;;;;;;;2.63;2.00;;;21.30;73.40;;;;;;5092756;28;20048;-51
2021/08/10 09:03:01;;;;;;;3.15;2.47;;;21.30;73.50;;;;;;5092079;28;20055;-51
2021/08/10 09:05:26;;;;;;;3.80;2.40;;;21.30;73.50;;;;;;5091757;28;20109;-46
2021/08/10 09:07:55;;;;;;;2.25;1.70;;;21.30;73.50;;;;;;5094223;28;20048;-46
2021/08/10 09:10:28;;;;;;;2.00;1.80;;;21.30;73.60;;;;;;5092877;28;20044;-47
2021/08/10 09:12:54;;;;;;;3.38;2.15;;;21.30;73.50;;;;;;5091630;28;20407;-47
2021/08/10 09:15:37;;;;;;;2.38;1.85;;;21.30;73.60;;;;;;5093926;28;20048;-48
2021/08/10 09:18:20;;;;;;;3.42;2.10;;;21.30;73.60;;;;;;5093112;28;20085;-53
2021/08/10 09:21:06;;;;;;;3.40;2.10;;;21.30;73.60;;;;;;5093683;28;20040;-53
2021/08/10 09:23:41;;;;;;;3.28;1.92;;;21.30;73.60;;;;;;5093233;28;20119;-49
2021/08/10 09:26:09;;;;;;;2.28;1.63;;;21.30;73.60;;;;;;5092973;28;20123;-53
2021/08/10 09:28:37;;;;;;;3.78;2.15;;;21.30;73.70;;;;;;5093769;28;20048;-52
2021/08/10 09:31:27;;;;;;;3.08;2.08;;;21.30;73.70;;;;;;5093811;28;20135;-53
2021/08/10 09:33:59;;;;;;;3.38;2.33;;;21.30;73.70;;;;;;5092486;28;20075;-47
2021/08/10 09:36:27;;;;;;;2.13;1.85;;;21.30;73.70;;;;;;5094032;28;20062;-48
2021/08/10 09:38:53;;;;;;;2.72;1.98;;;21.40;73.80;;;;;;5093716;28;20047;-54
2021/08/10 09:41:19;;;;;;;2.45;1.65;;;21.40;73.80;;;;;;5092574;28;20044;-50
2021/08/10 09:43:45;;;;;;;1.83;1.70;;;21.40;73.70;;;;;;5093617;28;20056;-52
2021/08/10 09:46:15;;;;;;;2.03;1.63;;;21.40;73.70;;;;;;5091461;28;20048;-51
2021/08/10 09:48:57;;;;;;;2.92;1.90;;;21.40;73.70;;;;;;5092083;28;20047;-54
2021/08/10 09:51:30;;;;;;;2.58;1.45;;;21.40;73.70;;;;;;5093285;28;20044;-54
2021/08/10 09:53:58;;;;;;;1.85;1.58;;;21.40;73.60;;;;;;5093124;28;20094;-56
2021/08/10 09:56:36;;;;;;;2.28;1.70;;;21.40;73.60;;;;;;5093106;28;20052;-46
2021/08/10 09:59:02;;;;;;;2.10;1.88;;;21.50;73.60;;;;;;5093782;28;20095;-42
2021/08/10 10:01:35;;;;;;;3.00;1.77;;;21.40;73.60;;;;;;5092384;28;20051;-49
2021/08/10 10:04:28;;;;;;;2.60;1.90;;;21.50;73.70;;;;;;5092303;28;20392;-53
2021/08/10 10:06:58;;;;;;;1.70;1.60;;;21.50;73.60;;;;;;5092172;28;20047;-48
2021/08/10 10:09:26;;;;;;;2.00;1.65;;;21.50;73.60;;;;;;5092925;28;20520;-54
2021/08/10 10:11:53;;;;;;;2.35;1.88;;;21.50;73.60;;;;;;5092693;28;20048;-50
2021/08/10 10:14:21;;;;;;;1.80;1.48;;;21.50;73.60;;;;;;5091643;28;20115;-52
2021/08/10 10:16:50;;;;;;;2.05;1.65;;;21.50;73.50;;;;;;5091082;28;20051;-50
2021/08/10 10:19:17;;;;;;;2.30;1.80;;;21.50;73.50;;;;;;5092731;28;20488;-50
2021/08/10 10:21:50;;;;;;;2.42;1.70;;;21.60;73.60;;;;;;5092554;28;20476;-50
2021/08/10 10:24:19;;;;;;;2.13;1.60;;;21.50;73.50;;;;;;5090150;28;20121;-51
2021/08/10 10:27:06;;;;;;;1.50;1.40;;;21.60;73.50;;;;;;5092535;28;20097;-51
2021/08/10 10:29:33;;;;;;;2.20;1.33;;;21.60;73.50;;;;;;5089443;28;20113;-54
2021/08/10 10:32:00;;;;;;;2.42;1.58;;;21.50;73.40;;;;;;5091578;28;20044;-55
2021/08/10 10:34:27;;;;;;;1.80;1.50;;;21.60;73.40;;;;;;5091973;28;20048;-54
2021/08/10 10:36:53;;;;;;;1.73;1.50;;;21.60;73.50;;;;;;5092481;28;20101;-52
2021/08/10 10:39:30;;;;;;;2.15;1.55;;;21.60;73.50;;;;;;5092795;28;20053;-51
2021/08/10 10:42:02;;;;;;;1.83;1.30;;;21.60;73.40;;;;;;5093300;28;20044;-50
2021/08/10 10:44:45;;;;;;;1.73;1.30;;;21.60;73.50;;;;;;5092157;28;20036;-51
2021/08/10 10:47:20;;;;;;;1.80;1.58;;;21.60;73.40;;;;;;5092328;28;20040;-50
2021/08/10 10:49:47;;;;;;;;;;;21.60;73.40;;;;;;5093018;28;20040;-53
2021/08/10 10:52:17;;;;;;;2.38;1.23;;;21.70;73.30;;;;;;5092034;28;19927;-54
2021/08/10 10:54:46;;;;;;;1.73;1.20;;;21.60;73.40;;;;;;5091731;28;20048;-50
2021/08/10 10:57:30;;;;;;;1.80;1.55;;;21.60;73.40;;;;;;5092628;28;20052;-50
2021/08/10 11:00:07;;;;;;;1.75;1.13;;;21.70;73.30;;;;;;5092518;28;20112;-52
2021/08/10 11:02:38;;;;;;;1.73;1.45;;;21.70;73.30;;;;;;5092165;28;20254;-51
2021/08/10 11:05:12;;;;;;;1.85;1.40;;;21.70;74.00;;;;;;5092129;28;20048;-51
2021/08/10 11:07:38;;;;;;;1.70;1.30;;;21.70;73.30;;;;;;5091732;28;20040;-51
2021/08/10 11:10:23;;;;;;;1.73;1.42;;;21.70;73.30;;;;;;5092098;28;20403;-50
2021/08/10 11:12:50;;;;;;;2.17;1.67;;;21.70;73.30;;;;;;5091936;28;20055;-54
2021/08/10 11:15:21;;;;;;;2.08;1.50;;;21.70;73.20;;;;;;5091352;28;20044;-52
2021/08/10 11:18:08;;;;;;;1.70;1.50;;;21.70;73.10;;;;;;5091860;28;20107;-54
2021/08/10 11:20:47;;;;;;;1.30;1.20;;;21.80;73.10;;;;;;5092096;28;20048;-50
2021/08/10 11:23:19;;;;;;;1.52;1.35;;;21.80;73.10;;;;;;5091646;28;20040;-53
2021/08/10 11:25:47;;;;;;;2.00;1.50;;;21.80;73.10;;;;;;5091292;28;20058;-50
2021/08/10 11:28:33;;;;;;;1.70;1.60;;;21.70;73.30;;;;;;5091609;28;20044;-50
2021/08/10 11:30:59;;;;;;;1.95;1.48;;;21.80;73.60;;;;;;5092042;28;20054;-51
2021/08/10 11:33:39;;;;;;;1.73;1.58;;;21.80;74.00;;;;;;5091889;28;20059;-50
2021/08/10 11:36:12;;;;;;;1.50;1.40;;;21.80;74.00;;;;;;5090850;28;20488;-48
2021/08/10 11:38:43;;;;;;;2.00;1.73;;;21.80;74.10;;;;;;5085851;28;20044;-52
2021/08/10 11:41:13;;;;;;;1.50;1.40;;;21.80;74.40;;;;;;5086403;28;20040;-52
2021/08/10 11:43:43;;;;;;;2.17;1.50;;;21.80;74.30;;;;;;5088785;28;20044;-54
2021/08/10 11:46:17;;;;;;;2.03;1.40;;;21.80;74.30;;;;;;5090176;28;20468;-53
2021/08/10 11:49:01;;;;;;;2.22;1.50;;;21.80;74.20;;;;;;5089220;28;20068;-46
2021/08/10 11:51:33;;;;;;;1.80;1.45;;;21.80;74.20;;;;;;5089691;28;20044;-48
2021/08/10 11:54:05;;;;;;;1.45;1.33;;;21.80;74.80;;;;;;5086753;28;20492;-48
2021/08/10 11:56:34;;;;;;;1.13;1.00;;;21.80;74.00;;;;;;5090697;28;20054;-49
2021/08/10 11:59:02;;;;;;;1.38;1.27;;;21.80;73.90;;;;;;5090557;28;20048;-48
2021/08/10 12:01:29;;;;;;;1.50;1.40;;;21.80;73.90;;;;;;5089816;28;20404;-54
2021/08/10 12:04:10;;;;;;;2.05;1.50;;;21.80;73.90;;;;;;5090676;28;20051;-45
2021/08/10 12:06:36;;;;;;;1.77;1.40;;;21.80;74.00;;;;;;5088110;28;20114;-53
2021/08/10 12:09:35;;;;;;;2.20;1.52;;;21.80;74.20;;;;;;5089430;28;20118;-50
2021/08/10 12:12:02;;;;;;;1.42;1.33;;;21.80;74.20;;;;;;5088873;28;20559;-50
2021/08/10 12:14:30;;;;;;;1.25;1.15;;;21.80;74.50;;;;;;5091247;28;20071;-52
2021/08/10 12:17:22;;;;;;;1.70;1.15;;;21.80;74.40;;;;;;5089105;28;20051;-55
2021/08/10 12:19:49;;;;;;;1.40;1.27;;;21.80;74.40;;;;;;5088284;28;20044;-47
2021/08/10 12:22:18;;;;;;;1.48;1.27;;;21.80;74.50;;;;;;5090370;28;20126;-50
2021/08/10 12:24:45;;;;;;;1.52;1.42;;;21.80;75.30;;;;;;5090948;28;20036;-55
2021/08/10 12:27:12;;;;;;;1.40;1.20;;;21.80;74.70;;;;;;5090190;28;20044;-55
2021/08/10 12:29:43;;;;;;;2.13;1.65;;;21.80;74.80;;;;;;5087511;28;20071;-46
2021/08/10 12:32:13;;;;;;;1.75;1.17;;;21.80;74.80;;;;;;5088814;28;20452;-52
2021/08/10 12:34:41;;;;;;;1.48;1.25;;;21.80;74.80;;;;;;5090309;28;20093;-50
2021/08/10 12:37:08;;;;;;;1.73;1.02;;;21.80;74.80;;;;;;5089337;28;20127;-54
2021/08/10 12:39:41;;;;;;;1.63;1.42;;;21.80;74.70;;;;;;5115085;27;20472;-53
2021/08/10 12:42:08;;;;;;;1.40;1.20;;;21.80;74.70;;;;;;5091574;28;20089;-51
2021/08/10 12:44:34;;;;;;;1.30;1.20;;;21.80;74.70;;;;;;5093624;28;20060;-54
2021/08/10 12:47:04;;;;;;;1.17;1.10;;;21.80;74.70;;;;;;5093929;28;20063;-50
2021/08/10 12:49:39;;;;;;;1.50;1.40;;;21.80;75.40;;;;;;5094620;28;20256;-53
2021/08/10 12:52:06;;;;;;;1.77;1.20;;;21.80;74.80;;;;;;5091264;28;20040;-53
2021/08/10 12:54:37;;;;;;;1.90;1.38;;;21.70;74.70;;;;;;5094379;28;20044;-52
2021/08/10 12:57:15;;;;;;;1.73;1.40;;;21.80;74.70;;;;;;5090808;28;20464;-53